sensor_id;sensor_type;location;lat;lon;timestamp;P1;durP1;ratioP1;P2;durP2;ratioP2
54589;SDS011;40485;53.172;5.416;2022-08-03T00:01:51;5.60;;;1.67;;
54589;SDS011;40485;53.172;5.416;2022-08-03T00:04:17;11.50;;;2.17;;
54589;SDS011;40485;53.172;5.416;2022-08-03T00:06:43;8.88;;;1.98;;
54589;SDS011;40485;53.172;5.416;2022-08-03T00:09:08;8.13;;;2.20;;
54589;SDS011;40485;53.172;5.416;2022-08-03T00:11:35;9.18;;;2.28;;
54589;SDS011;40485;53.172;5.416;2022-08-03T00:14:02;9.95;;;1.80;;
54589;SDS011;40485;53.172;5.416;2022-08-03T00:16:32;10.80;;;1.98;;
54589;SDS011;40485;53.172;5.416;2022-08-03T00:18:58;9.70;;;2.05;;
54589;SDS011;40485;53.172;5.416;2022-08-03T00:21:23;10.93;;;2.05;;
54589;SDS011;40485;53.172;5.416;2022-08-03T00:23:49;15.60;;;2.78;;
54589;SDS011;40485;53.172;5.416;2022-08-03T00:26:14;6.80;;;2.70;;
54589;SDS011;40485;53.172;5.416;2022-08-03T00:28:40;12.50;;;2.47;;
54589;SDS011;40485;53.172;5.416;2022-08-03T00:31:06;14.18;;;2.83;;
54589;SDS011;40485;53.172;5.416;2022-08-03T00:33:32;11.02;;;2.70;;
54589;SDS011;40485;53.172;5.416;2022-08-03T00:35:58;14.90;;;2.67;;
54589;SDS011;40485;53.172;5.416;2022-08-03T00:38:23;10.80;;;2.50;;
54589;SDS011;40485;53.172;5.416;2022-08-03T00:40:49;15.38;;;3.53;;
54589;SDS011;40485;53.172;5.416;2022-08-03T00:43:15;11.43;;;2.67;;
54589;SDS011;40485;53.172;5.416;2022-08-03T00:45:41;11.85;;;2.60;;
54589;SDS011;40485;53.172;5.416;2022-08-03T00:48:07;11.70;;;3.28;;
54589;SDS011;40485;53.172;5.416;2022-08-03T00:50:35;10.80;;;2.85;;
54589;SDS011;40485;53.172;5.416;2022-08-03T00:53:04;8.45;;;2.45;;
54589;SDS011;40485;53.172;5.416;2022-08-03T00:55:31;12.13;;;2.90;;
54589;SDS011;40485;53.172;5.416;2022-08-03T00:57:57;14.05;;;3.17;;
54589;SDS011;40485;53.172;5.416;2022-08-03T01:00:24;19.30;;;2.78;;
54589;SDS011;40485;53.172;5.416;2022-08-03T01:02:51;10.45;;;2.70;;
54589;SDS011;40485;53.172;5.416;2022-08-03T01:05:18;9.95;;;2.05;;
54589;SDS011;40485;53.172;5.416;2022-08-03T01:15:42;12.85;;;2.53;;
54589;SDS011;40485;53.172;5.416;2022-08-03T01:18:16;13.60;;;2.80;;
54589;SDS011;40485;53.172;5.416;2022-08-03T01:20:50;8.40;;;2.17;;
54589;SDS011;40485;53.172;5.416;2022-08-03T01:32:01;7.07;;;1.83;;
54589;SDS011;40485;53.172;5.416;2022-08-03T01:34:33;9.10;;;2.30;;
54589;SDS011;40485;53.172;5.416;2022-08-03T01:37:05;13.20;;;2.53;;
54589;SDS011;40485;53.172;5.416;2022-08-03T01:39:33;12.07;;;2.08;;
54589;SDS011;40485;53.172;5.416;2022-08-03T01:42:03;13.35;;;2.28;;
54589;SDS011;40485;53.172;5.416;2022-08-03T01:44:39;10.20;;;2.45;;
54589;SDS011;40485;53.172;5.416;2022-08-03T01:47:06;10.27;;;2.75;;
54589;SDS011;40485;53.172;5.416;2022-08-03T01:49:36;13.07;;;2.40;;
54589;SDS011;40485;53.172;5.416;2022-08-03T01:52:04;10.43;;;2.58;;
54589;SDS011;40485;53.172;5.416;2022-08-03T01:54:35;11.35;;;2.60;;
54589;SDS011;40485;53.172;5.416;2022-08-03T01:57:05;12.07;;;2.70;;
54589;SDS011;40485;53.172;5.416;2022-08-03T01:59:33;14.07;;;2.80;;
54589;SDS011;40485;53.172;5.416;2022-08-03T02:02:00;9.63;;;2.65;;
54589;SDS011;40485;53.172;5.416;2022-08-03T02:04:27;13.45;;;2.63;;
54589;SDS011;40485;53.172;5.416;2022-08-03T02:06:54;15.10;;;2.58;;
54589;SDS011;40485;53.172;5.416;2022-08-03T02:09:21;6.90;;;2.03;;
54589;SDS011;40485;53.172;5.416;2022-08-03T02:11:48;12.68;;;2.83;;
54589;SDS011;40485;53.172;5.416;2022-08-03T02:14:14;13.93;;;2.60;;
54589;SDS011;40485;53.172;5.416;2022-08-03T02:16:41;11.18;;;2.42;;
54589;SDS011;40485;53.172;5.416;2022-08-03T02:19:08;10.68;;;2.28;;
54589;SDS011;40485;53.172;5.416;2022-08-03T02:21:35;10.00;;;2.25;;
54589;SDS011;40485;53.172;5.416;2022-08-03T02:24:02;13.85;;;3.92;;
54589;SDS011;40485;53.172;5.416;2022-08-03T02:26:29;19.63;;;2.95;;
54589;SDS011;40485;53.172;5.416;2022-08-03T02:28:56;15.27;;;2.67;;
54589;SDS011;40485;53.172;5.416;2022-08-03T02:31:28;15.85;;;3.30;;
54589;SDS011;40485;53.172;5.416;2022-08-03T02:33:58;9.20;;;2.35;;
54589;SDS011;40485;53.172;5.416;2022-08-03T02:36:28;13.73;;;2.53;;
54589;SDS011;40485;53.172;5.416;2022-08-03T02:38:58;11.45;;;2.22;;
54589;SDS011;40485;53.172;5.416;2022-08-03T02:41:29;8.90;;;1.77;;
54589;SDS011;40485;53.172;5.416;2022-08-03T02:43:58;9.73;;;2.60;;
54589;SDS011;40485;53.172;5.416;2022-08-03T02:46:30;14.95;;;2.88;;
54589;SDS011;40485;53.172;5.416;2022-08-03T02:48:59;11.23;;;2.33;;
54589;SDS011;40485;53.172;5.416;2022-08-03T02:51:27;10.25;;;2.45;;
54589;SDS011;40485;53.172;5.416;2022-08-03T02:53:56;11.32;;;2.45;;
54589;SDS011;40485;53.172;5.416;2022-08-03T02:56:24;14.88;;;3.08;;
54589;SDS011;40485;53.172;5.416;2022-08-03T02:58:51;9.63;;;2.58;;
54589;SDS011;40485;53.172;5.416;2022-08-03T03:01:21;12.60;;;2.58;;
54589;SDS011;40485;53.172;5.416;2022-08-03T03:03:48;13.75;;;2.35;;
54589;SDS011;40485;53.172;5.416;2022-08-03T03:06:16;9.63;;;2.15;;
54589;SDS011;40485;53.172;5.416;2022-08-03T03:08:43;21.40;;;3.50;;
54589;SDS011;40485;53.172;5.416;2022-08-03T03:11:10;12.85;;;2.85;;
54589;SDS011;40485;53.172;5.416;2022-08-03T03:13:38;13.90;;;3.13;;
54589;SDS011;40485;53.172;5.416;2022-08-03T03:16:05;11.98;;;2.55;;
54589;SDS011;40485;53.172;5.416;2022-08-03T03:18:32;13.55;;;2.13;;
54589;SDS011;40485;53.172;5.416;2022-08-03T03:20:59;10.98;;;2.33;;
54589;SDS011;40485;53.172;5.416;2022-08-03T03:23:27;10.10;;;2.25;;
54589;SDS011;40485;53.172;5.416;2022-08-03T03:25:53;16.42;;;2.38;;
54589;SDS011;40485;53.172;5.416;2022-08-03T03:28:20;13.10;;;3.53;;
54589;SDS011;40485;53.172;5.416;2022-08-03T03:30:47;13.32;;;3.20;;
54589;SDS011;40485;53.172;5.416;2022-08-03T03:33:13;19.33;;;2.78;;
54589;SDS011;40485;53.172;5.416;2022-08-03T03:35:40;10.32;;;2.85;;
54589;SDS011;40485;53.172;5.416;2022-08-03T03:38:07;13.82;;;2.75;;
54589;SDS011;40485;53.172;5.416;2022-08-03T03:40:36;13.05;;;3.08;;
54589;SDS011;40485;53.172;5.416;2022-08-03T03:43:03;18.35;;;3.25;;
54589;SDS011;40485;53.172;5.416;2022-08-03T03:45:33;15.45;;;3.20;;
54589;SDS011;40485;53.172;5.416;2022-08-03T03:48:00;19.27;;;3.42;;
54589;SDS011;40485;53.172;5.416;2022-08-03T03:50:26;15.40;;;3.05;;
54589;SDS011;40485;53.172;5.416;2022-08-03T03:52:53;14.25;;;3.72;;
54589;SDS011;40485;53.172;5.416;2022-08-03T03:55:19;9.30;;;2.95;;
54589;SDS011;40485;53.172;5.416;2022-08-03T03:57:45;15.05;;;3.00;;
54589;SDS011;40485;53.172;5.416;2022-08-03T04:00:11;13.98;;;2.90;;
54589;SDS011;40485;53.172;5.416;2022-08-03T04:02:38;16.08;;;3.15;;
54589;SDS011;40485;53.172;5.416;2022-08-03T04:05:04;11.93;;;3.35;;
54589;SDS011;40485;53.172;5.416;2022-08-03T04:07:58;13.45;;;3.40;;
54589;SDS011;40485;53.172;5.416;2022-08-03T04:10:49;9.75;;;3.20;;
54589;SDS011;40485;53.172;5.416;2022-08-03T04:13:40;9.77;;;2.92;;
54589;SDS011;40485;53.172;5.416;2022-08-03T04:16:09;11.38;;;2.50;;
54589;SDS011;40485;53.172;5.416;2022-08-03T04:18:39;10.23;;;2.70;;
54589;SDS011;40485;53.172;5.416;2022-08-03T04:21:07;18.08;;;3.50;;
54589;SDS011;40485;53.172;5.416;2022-08-03T04:23:37;15.38;;;3.00;;
54589;SDS011;40485;53.172;5.416;2022-08-03T04:26:07;17.63;;;2.95;;
54589;SDS011;40485;53.172;5.416;2022-08-03T04:28:36;13.32;;;2.88;;
54589;SDS011;40485;53.172;5.416;2022-08-03T04:31:04;15.63;;;3.05;;
54589;SDS011;40485;53.172;5.416;2022-08-03T04:33:31;16.33;;;3.30;;
54589;SDS011;40485;53.172;5.416;2022-08-03T04:35:59;17.40;;;3.97;;
54589;SDS011;40485;53.172;5.416;2022-08-03T04:38:28;16.95;;;3.38;;
54589;SDS011;40485;53.172;5.416;2022-08-03T04:41:00;17.83;;;3.03;;
54589;SDS011;40485;53.172;5.416;2022-08-03T04:43:27;12.55;;;3.22;;
54589;SDS011;40485;53.172;5.416;2022-08-03T04:45:55;16.13;;;3.15;;
54589;SDS011;40485;53.172;5.416;2022-08-03T04:48:21;17.95;;;3.10;;
54589;SDS011;40485;53.172;5.416;2022-08-03T04:50:47;16.98;;;3.50;;
54589;SDS011;40485;53.172;5.416;2022-08-03T04:53:12;19.35;;;3.97;;
54589;SDS011;40485;53.172;5.416;2022-08-03T04:55:38;13.10;;;2.33;;
54589;SDS011;40485;53.172;5.416;2022-08-03T04:58:04;14.75;;;3.03;;
54589;SDS011;40485;53.172;5.416;2022-08-03T05:00:30;16.98;;;3.03;;
54589;SDS011;40485;53.172;5.416;2022-08-03T05:02:56;14.45;;;2.67;;
54589;SDS011;40485;53.172;5.416;2022-08-03T05:05:22;14.38;;;3.13;;
54589;SDS011;40485;53.172;5.416;2022-08-03T05:07:48;18.08;;;4.05;;
54589;SDS011;40485;53.172;5.416;2022-08-03T05:10:14;20.95;;;3.90;;
54589;SDS011;40485;53.172;5.416;2022-08-03T05:12:40;13.40;;;2.58;;
54589;SDS011;40485;53.172;5.416;2022-08-03T05:15:06;14.57;;;3.22;;
54589;SDS011;40485;53.172;5.416;2022-08-03T05:17:32;14.45;;;3.70;;
54589;SDS011;40485;53.172;5.416;2022-08-03T05:19:58;16.80;;;4.05;;
54589;SDS011;40485;53.172;5.416;2022-08-03T05:22:24;13.63;;;2.70;;
54589;SDS011;40485;53.172;5.416;2022-08-03T05:24:49;14.35;;;3.85;;
54589;SDS011;40485;53.172;5.416;2022-08-03T05:27:15;15.98;;;3.65;;
54589;SDS011;40485;53.172;5.416;2022-08-03T05:29:45;19.20;;;3.90;;
54589;SDS011;40485;53.172;5.416;2022-08-03T05:32:11;12.80;;;3.42;;
54589;SDS011;40485;53.172;5.416;2022-08-03T05:34:36;19.77;;;3.78;;
54589;SDS011;40485;53.172;5.416;2022-08-03T05:37:02;14.13;;;2.97;;
54589;SDS011;40485;53.172;5.416;2022-08-03T05:39:28;14.88;;;2.90;;
54589;SDS011;40485;53.172;5.416;2022-08-03T05:41:53;16.33;;;3.63;;
54589;SDS011;40485;53.172;5.416;2022-08-03T05:44:19;23.42;;;2.85;;
54589;SDS011;40485;53.172;5.416;2022-08-03T05:46:45;9.63;;;3.13;;
54589;SDS011;40485;53.172;5.416;2022-08-03T05:49:11;15.15;;;3.63;;
54589;SDS011;40485;53.172;5.416;2022-08-03T05:51:36;18.90;;;3.35;;
54589;SDS011;40485;53.172;5.416;2022-08-03T05:54:02;19.58;;;3.65;;
54589;SDS011;40485;53.172;5.416;2022-08-03T05:56:28;14.25;;;3.78;;
54589;SDS011;40485;53.172;5.416;2022-08-03T05:58:53;22.50;;;3.88;;
54589;SDS011;40485;53.172;5.416;2022-08-03T06:01:19;16.35;;;3.75;;
54589;SDS011;40485;53.172;5.416;2022-08-03T06:03:46;13.98;;;3.22;;
54589;SDS011;40485;53.172;5.416;2022-08-03T06:06:13;14.18;;;3.30;;
54589;SDS011;40485;53.172;5.416;2022-08-03T06:08:39;16.38;;;4.15;;
54589;SDS011;40485;53.172;5.416;2022-08-03T06:11:05;17.35;;;4.07;;
54589;SDS011;40485;53.172;5.416;2022-08-03T06:13:31;19.38;;;3.35;;
54589;SDS011;40485;53.172;5.416;2022-08-03T06:15:56;14.88;;;3.75;;
54589;SDS011;40485;53.172;5.416;2022-08-03T06:18:22;13.40;;;3.63;;
54589;SDS011;40485;53.172;5.416;2022-08-03T06:20:48;15.25;;;2.58;;
54589;SDS011;40485;53.172;5.416;2022-08-03T06:23:15;23.90;;;3.72;;
54589;SDS011;40485;53.172;5.416;2022-08-03T06:25:41;19.20;;;4.10;;
54589;SDS011;40485;53.172;5.416;2022-08-03T06:28:07;15.55;;;3.53;;
54589;SDS011;40485;53.172;5.416;2022-08-03T06:30:32;19.33;;;3.38;;
54589;SDS011;40485;53.172;5.416;2022-08-03T06:32:58;16.50;;;3.42;;
54589;SDS011;40485;53.172;5.416;2022-08-03T06:35:24;18.48;;;4.03;;
54589;SDS011;40485;53.172;5.416;2022-08-03T06:37:51;13.90;;;3.15;;
54589;SDS011;40485;53.172;5.416;2022-08-03T06:40:18;21.10;;;4.30;;
54589;SDS011;40485;53.172;5.416;2022-08-03T06:42:52;17.65;;;3.58;;
54589;SDS011;40485;53.172;5.416;2022-08-03T06:45:18;16.20;;;3.83;;
54589;SDS011;40485;53.172;5.416;2022-08-03T06:47:44;21.95;;;3.78;;
54589;SDS011;40485;53.172;5.416;2022-08-03T06:50:10;19.58;;;3.78;;
54589;SDS011;40485;53.172;5.416;2022-08-03T06:52:35;13.93;;;3.70;;
54589;SDS011;40485;53.172;5.416;2022-08-03T06:55:02;15.75;;;4.53;;
54589;SDS011;40485;53.172;5.416;2022-08-03T06:57:28;15.57;;;3.10;;
54589;SDS011;40485;53.172;5.416;2022-08-03T06:59:53;19.88;;;3.83;;
54589;SDS011;40485;53.172;5.416;2022-08-03T07:02:20;10.63;;;2.78;;
54589;SDS011;40485;53.172;5.416;2022-08-03T07:04:48;16.65;;;4.38;;
54589;SDS011;40485;53.172;5.416;2022-08-03T07:07:14;18.20;;;4.18;;
54589;SDS011;40485;53.172;5.416;2022-08-03T07:09:41;19.23;;;4.57;;
54589;SDS011;40485;53.172;5.416;2022-08-03T07:12:06;16.70;;;4.60;;
54589;SDS011;40485;53.172;5.416;2022-08-03T07:14:32;19.27;;;4.65;;
54589;SDS011;40485;53.172;5.416;2022-08-03T07:16:58;19.38;;;4.13;;
54589;SDS011;40485;53.172;5.416;2022-08-03T07:19:23;17.92;;;3.80;;
54589;SDS011;40485;53.172;5.416;2022-08-03T07:21:50;15.75;;;3.85;;
54589;SDS011;40485;53.172;5.416;2022-08-03T07:24:15;18.17;;;5.15;;
54589;SDS011;40485;53.172;5.416;2022-08-03T07:26:41;17.00;;;4.97;;
54589;SDS011;40485;53.172;5.416;2022-08-03T07:29:06;23.52;;;4.70;;
54589;SDS011;40485;53.172;5.416;2022-08-03T07:31:32;26.67;;;4.80;;
54589;SDS011;40485;53.172;5.416;2022-08-03T07:33:57;17.88;;;4.70;;
54589;SDS011;40485;53.172;5.416;2022-08-03T07:36:23;26.48;;;5.72;;
54589;SDS011;40485;53.172;5.416;2022-08-03T07:38:49;25.27;;;4.32;;
54589;SDS011;40485;53.172;5.416;2022-08-03T07:41:14;19.48;;;5.20;;
54589;SDS011;40485;53.172;5.416;2022-08-03T07:43:40;18.73;;;4.75;;
54589;SDS011;40485;53.172;5.416;2022-08-03T07:46:06;19.50;;;4.38;;
54589;SDS011;40485;53.172;5.416;2022-08-03T07:48:31;19.13;;;4.30;;
54589;SDS011;40485;53.172;5.416;2022-08-03T07:50:57;17.42;;;4.03;;
54589;SDS011;40485;53.172;5.416;2022-08-03T07:53:22;28.83;;;5.78;;
54589;SDS011;40485;53.172;5.416;2022-08-03T07:55:48;18.95;;;4.35;;
54589;SDS011;40485;53.172;5.416;2022-08-03T07:58:14;20.90;;;4.55;;
54589;SDS011;40485;53.172;5.416;2022-08-03T08:00:41;13.23;;;4.15;;
54589;SDS011;40485;53.172;5.416;2022-08-03T08:03:07;16.42;;;4.43;;
54589;SDS011;40485;53.172;5.416;2022-08-03T08:05:37;18.63;;;5.10;;
54589;SDS011;40485;53.172;5.416;2022-08-03T08:08:02;25.05;;;5.10;;
54589;SDS011;40485;53.172;5.416;2022-08-03T08:10:28;21.00;;;4.78;;
54589;SDS011;40485;53.172;5.416;2022-08-03T08:12:55;15.52;;;4.63;;
54589;SDS011;40485;53.172;5.416;2022-08-03T08:15:20;18.75;;;4.45;;
54589;SDS011;40485;53.172;5.416;2022-08-03T08:17:47;22.58;;;4.70;;
54589;SDS011;40485;53.172;5.416;2022-08-03T08:20:22;14.70;;;4.75;;
54589;SDS011;40485;53.172;5.416;2022-08-03T08:22:49;17.73;;;4.78;;
54589;SDS011;40485;53.172;5.416;2022-08-03T08:25:14;21.73;;;4.63;;
54589;SDS011;40485;53.172;5.416;2022-08-03T08:27:41;16.73;;;4.85;;
54589;SDS011;40485;53.172;5.416;2022-08-03T08:30:12;19.27;;;5.22;;
54589;SDS011;40485;53.172;5.416;2022-08-03T08:32:38;20.58;;;5.45;;
54589;SDS011;40485;53.172;5.416;2022-08-03T08:35:04;24.50;;;4.93;;
54589;SDS011;40485;53.172;5.416;2022-08-03T08:37:31;15.98;;;4.90;;
54589;SDS011;40485;53.172;5.416;2022-08-03T08:39:56;20.77;;;5.22;;
54589;SDS011;40485;53.172;5.416;2022-08-03T08:42:22;21.10;;;4.95;;
54589;SDS011;40485;53.172;5.416;2022-08-03T08:44:48;19.15;;;5.00;;
54589;SDS011;40485;53.172;5.416;2022-08-03T08:47:14;22.70;;;4.90;;
54589;SDS011;40485;53.172;5.416;2022-08-03T08:49:47;19.75;;;5.82;;
54589;SDS011;40485;53.172;5.416;2022-08-03T08:52:17;20.17;;;4.97;;
54589;SDS011;40485;53.172;5.416;2022-08-03T08:54:47;17.13;;;4.72;;
54589;SDS011;40485;53.172;5.416;2022-08-03T08:57:13;25.40;;;5.22;;
54589;SDS011;40485;53.172;5.416;2022-08-03T08:59:41;24.50;;;5.40;;
54589;SDS011;40485;53.172;5.416;2022-08-03T09:02:08;17.77;;;5.07;;
54589;SDS011;40485;53.172;5.416;2022-08-03T09:04:34;20.50;;;4.85;;
54589;SDS011;40485;53.172;5.416;2022-08-03T09:07:02;12.13;;;4.50;;
54589;SDS011;40485;53.172;5.416;2022-08-03T09:09:28;14.48;;;4.90;;
54589;SDS011;40485;53.172;5.416;2022-08-03T09:11:55;22.27;;;5.13;;
54589;SDS011;40485;53.172;5.416;2022-08-03T09:14:21;25.88;;;4.97;;
54589;SDS011;40485;53.172;5.416;2022-08-03T09:16:57;24.45;;;5.90;;
54589;SDS011;40485;53.172;5.416;2022-08-03T09:19:27;19.42;;;5.30;;
54589;SDS011;40485;53.172;5.416;2022-08-03T09:22:07;18.17;;;3.80;;
54589;SDS011;40485;53.172;5.416;2022-08-03T09:24:34;21.30;;;5.60;;
54589;SDS011;40485;53.172;5.416;2022-08-03T09:27:01;18.73;;;4.55;;
54589;SDS011;40485;53.172;5.416;2022-08-03T09:29:30;26.23;;;5.32;;
54589;SDS011;40485;53.172;5.416;2022-08-03T09:32:01;20.27;;;5.18;;
54589;SDS011;40485;53.172;5.416;2022-08-03T09:34:28;24.40;;;4.82;;
54589;SDS011;40485;53.172;5.416;2022-08-03T09:36:54;13.80;;;4.68;;
54589;SDS011;40485;53.172;5.416;2022-08-03T09:39:22;18.85;;;4.65;;
54589;SDS011;40485;53.172;5.416;2022-08-03T09:42:03;16.25;;;4.38;;
54589;SDS011;40485;53.172;5.416;2022-08-03T09:44:34;24.52;;;5.03;;
54589;SDS011;40485;53.172;5.416;2022-08-03T09:47:01;16.92;;;5.25;;
54589;SDS011;40485;53.172;5.416;2022-08-03T09:49:27;29.65;;;5.63;;
54589;SDS011;40485;53.172;5.416;2022-08-03T09:51:53;16.80;;;4.90;;
54589;SDS011;40485;53.172;5.416;2022-08-03T09:54:25;19.05;;;5.07;;
54589;SDS011;40485;53.172;5.416;2022-08-03T09:56:51;30.90;;;6.28;;
54589;SDS011;40485;53.172;5.416;2022-08-03T10:01:50;22.45;;;5.35;;
54589;SDS011;40485;53.172;5.416;2022-08-03T10:04:16;16.35;;;4.82;;
54589;SDS011;40485;53.172;5.416;2022-08-03T10:06:49;20.13;;;5.28;;
54589;SDS011;40485;53.172;5.416;2022-08-03T10:09:27;18.97;;;4.97;;
54589;SDS011;40485;53.172;5.416;2022-08-03T10:11:53;19.10;;;5.72;;
54589;SDS011;40485;53.172;5.416;2022-08-03T10:14:19;18.35;;;5.28;;
54589;SDS011;40485;53.172;5.416;2022-08-03T10:16:46;22.17;;;5.35;;
54589;SDS011;40485;53.172;5.416;2022-08-03T10:19:13;17.55;;;4.75;;
54589;SDS011;40485;53.172;5.416;2022-08-03T10:21:40;14.95;;;5.05;;
54589;SDS011;40485;53.172;5.416;2022-08-03T10:24:10;20.00;;;5.28;;
54589;SDS011;40485;53.172;5.416;2022-08-03T10:26:38;22.80;;;5.97;;
54589;SDS011;40485;53.172;5.416;2022-08-03T10:29:07;24.77;;;5.63;;
54589;SDS011;40485;53.172;5.416;2022-08-03T10:31:43;19.08;;;4.70;;
54589;SDS011;40485;53.172;5.416;2022-08-03T10:34:14;18.77;;;4.75;;
54589;SDS011;40485;53.172;5.416;2022-08-03T10:36:59;13.55;;;4.28;;
54589;SDS011;40485;53.172;5.416;2022-08-03T10:39:28;22.13;;;4.15;;
54589;SDS011;40485;53.172;5.416;2022-08-03T10:41:54;23.70;;;4.47;;
54589;SDS011;40485;53.172;5.416;2022-08-03T10:44:23;23.42;;;4.25;;
54589;SDS011;40485;53.172;5.416;2022-08-03T10:46:50;20.45;;;4.07;;
54589;SDS011;40485;53.172;5.416;2022-08-03T10:49:17;15.35;;;3.83;;
54589;SDS011;40485;53.172;5.416;2022-08-03T10:51:43;20.75;;;4.43;;
54589;SDS011;40485;53.172;5.416;2022-08-03T10:57:01;17.13;;;4.38;;
54589;SDS011;40485;53.172;5.416;2022-08-03T11:02:13;17.85;;;4.72;;
54589;SDS011;40485;53.172;5.416;2022-08-03T11:04:39;19.13;;;4.03;;
54589;SDS011;40485;53.172;5.416;2022-08-03T11:09:41;17.25;;;4.20;;
54589;SDS011;40485;53.172;5.416;2022-08-03T11:12:19;20.88;;;4.20;;
54589;SDS011;40485;53.172;5.416;2022-08-03T11:14:53;15.30;;;4.45;;
54589;SDS011;40485;53.172;5.416;2022-08-03T11:17:20;24.05;;;3.53;;
54589;SDS011;40485;53.172;5.416;2022-08-03T11:19:47;13.80;;;3.65;;
54589;SDS011;40485;53.172;5.416;2022-08-03T11:22:17;20.33;;;3.60;;
54589;SDS011;40485;53.172;5.416;2022-08-03T11:27:27;18.15;;;3.88;;
54589;SDS011;40485;53.172;5.416;2022-08-03T11:29:59;16.85;;;5.40;;
54589;SDS011;40485;53.172;5.416;2022-08-03T11:35:15;16.95;;;3.78;;
54589;SDS011;40485;53.172;5.416;2022-08-03T11:40:45;13.32;;;3.75;;
54589;SDS011;40485;53.172;5.416;2022-08-03T11:46:01;11.18;;;3.08;;
54589;SDS011;40485;53.172;5.416;2022-08-03T11:50:59;17.20;;;3.60;;
54589;SDS011;40485;53.172;5.416;2022-08-03T11:53:25;19.05;;;3.92;;
54589;SDS011;40485;53.172;5.416;2022-08-03T11:55:52;13.73;;;3.60;;
54589;SDS011;40485;53.172;5.416;2022-08-03T11:58:18;12.30;;;3.22;;
54589;SDS011;40485;53.172;5.416;2022-08-03T12:00:48;15.88;;;3.60;;
54589;SDS011;40485;53.172;5.416;2022-08-03T12:03:15;8.35;;;3.05;;
54589;SDS011;40485;53.172;5.416;2022-08-03T12:05:50;11.32;;;3.28;;
54589;SDS011;40485;53.172;5.416;2022-08-03T12:08:18;11.68;;;3.20;;
54589;SDS011;40485;53.172;5.416;2022-08-03T12:10:57;21.00;;;3.55;;
54589;SDS011;40485;53.172;5.416;2022-08-03T12:13:24;12.23;;;3.78;;
54589;SDS011;40485;53.172;5.416;2022-08-03T12:15:51;15.07;;;3.63;;
54589;SDS011;40485;53.172;5.416;2022-08-03T12:18:18;10.60;;;2.75;;
54589;SDS011;40485;53.172;5.416;2022-08-03T12:20:45;14.95;;;3.20;;
54589;SDS011;40485;53.172;5.416;2022-08-03T12:23:11;13.77;;;3.33;;
54589;SDS011;40485;53.172;5.416;2022-08-03T12:25:37;9.70;;;2.83;;
54589;SDS011;40485;53.172;5.416;2022-08-03T12:28:05;12.40;;;2.75;;
54589;SDS011;40485;53.172;5.416;2022-08-03T12:30:31;16.73;;;5.85;;
54589;SDS011;40485;53.172;5.416;2022-08-03T12:32:57;17.80;;;2.90;;
54589;SDS011;40485;53.172;5.416;2022-08-03T12:35:23;11.00;;;2.50;;
54589;SDS011;40485;53.172;5.416;2022-08-03T12:37:49;10.32;;;2.60;;
54589;SDS011;40485;53.172;5.416;2022-08-03T12:40:24;12.05;;;2.95;;
54589;SDS011;40485;53.172;5.416;2022-08-03T12:42:51;11.05;;;2.83;;
54589;SDS011;40485;53.172;5.416;2022-08-03T12:45:24;10.40;;;2.97;;
54589;SDS011;40485;53.172;5.416;2022-08-03T12:47:56;17.65;;;3.80;;
54589;SDS011;40485;53.172;5.416;2022-08-03T12:50:25;19.08;;;3.70;;
54589;SDS011;40485;53.172;5.416;2022-08-03T12:53:00;19.10;;;4.00;;
54589;SDS011;40485;53.172;5.416;2022-08-03T12:55:27;12.02;;;3.40;;
54589;SDS011;40485;53.172;5.416;2022-08-03T12:58:04;9.60;;;2.65;;
54589;SDS011;40485;53.172;5.416;2022-08-03T13:00:32;13.75;;;3.42;;
54589;SDS011;40485;53.172;5.416;2022-08-03T13:03:04;14.73;;;3.70;;
54589;SDS011;40485;53.172;5.416;2022-08-03T13:05:31;12.68;;;3.25;;
54589;SDS011;40485;53.172;5.416;2022-08-03T13:08:18;14.60;;;3.38;;
54589;SDS011;40485;53.172;5.416;2022-08-03T13:10:45;15.43;;;3.78;;
54589;SDS011;40485;53.172;5.416;2022-08-03T13:13:11;13.88;;;3.60;;
54589;SDS011;40485;53.172;5.416;2022-08-03T13:15:36;10.00;;;3.40;;
54589;SDS011;40485;53.172;5.416;2022-08-03T13:18:02;15.40;;;2.95;;
54589;SDS011;40485;53.172;5.416;2022-08-03T13:20:28;13.35;;;3.58;;
54589;SDS011;40485;53.172;5.416;2022-08-03T13:22:53;17.15;;;3.60;;
54589;SDS011;40485;53.172;5.416;2022-08-03T13:25:20;14.95;;;3.88;;
54589;SDS011;40485;53.172;5.416;2022-08-03T13:27:46;16.95;;;3.70;;
54589;SDS011;40485;53.172;5.416;2022-08-03T13:30:12;11.15;;;3.47;;
54589;SDS011;40485;53.172;5.416;2022-08-03T13:32:39;12.30;;;3.28;;
54589;SDS011;40485;53.172;5.416;2022-08-03T13:35:05;15.55;;;4.07;;
54589;SDS011;40485;53.172;5.416;2022-08-03T13:37:31;15.93;;;3.35;;
54589;SDS011;40485;53.172;5.416;2022-08-03T13:39:57;14.13;;;2.92;;
54589;SDS011;40485;53.172;5.416;2022-08-03T13:42:23;14.27;;;2.80;;
54589;SDS011;40485;53.172;5.416;2022-08-03T13:44:49;18.05;;;3.50;;
54589;SDS011;40485;53.172;5.416;2022-08-03T13:47:15;10.00;;;3.13;;
54589;SDS011;40485;53.172;5.416;2022-08-03T13:49:41;11.80;;;2.80;;
54589;SDS011;40485;53.172;5.416;2022-08-03T13:52:06;11.13;;;3.20;;
54589;SDS011;40485;53.172;5.416;2022-08-03T13:54:32;14.77;;;3.05;;
54589;SDS011;40485;53.172;5.416;2022-08-03T13:56:58;16.75;;;3.75;;
54589;SDS011;40485;53.172;5.416;2022-08-03T13:59:24;11.68;;;2.95;;
54589;SDS011;40485;53.172;5.416;2022-08-03T14:01:51;15.85;;;3.22;;
54589;SDS011;40485;53.172;5.416;2022-08-03T14:04:18;19.38;;;3.65;;
54589;SDS011;40485;53.172;5.416;2022-08-03T14:06:44;18.17;;;3.47;;
54589;SDS011;40485;53.172;5.416;2022-08-03T14:09:13;19.50;;;3.22;;
54589;SDS011;40485;53.172;5.416;2022-08-03T14:11:39;15.40;;;3.47;;
54589;SDS011;40485;53.172;5.416;2022-08-03T14:14:05;10.77;;;2.75;;
54589;SDS011;40485;53.172;5.416;2022-08-03T14:16:31;14.90;;;3.33;;
54589;SDS011;40485;53.172;5.416;2022-08-03T14:18:57;19.40;;;3.70;;
54589;SDS011;40485;53.172;5.416;2022-08-03T14:21:22;13.55;;;2.78;;
54589;SDS011;40485;53.172;5.416;2022-08-03T14:23:48;20.02;;;3.08;;
54589;SDS011;40485;53.172;5.416;2022-08-03T14:26:13;21.13;;;3.42;;
54589;SDS011;40485;53.172;5.416;2022-08-03T14:28:39;11.25;;;2.95;;
54589;SDS011;40485;53.172;5.416;2022-08-03T14:31:05;14.43;;;2.72;;
54589;SDS011;40485;53.172;5.416;2022-08-03T14:33:31;15.05;;;3.08;;
54589;SDS011;40485;53.172;5.416;2022-08-03T14:35:56;9.23;;;2.88;;
54589;SDS011;40485;53.172;5.416;2022-08-03T14:38:22;14.13;;;3.05;;
54589;SDS011;40485;53.172;5.416;2022-08-03T14:40:49;16.02;;;3.13;;
54589;SDS011;40485;53.172;5.416;2022-08-03T14:43:15;8.15;;;2.22;;
54589;SDS011;40485;53.172;5.416;2022-08-03T14:45:47;20.05;;;3.72;;
54589;SDS011;40485;53.172;5.416;2022-08-03T14:48:16;16.10;;;2.90;;
54589;SDS011;40485;53.172;5.416;2022-08-03T14:50:42;11.75;;;3.03;;
54589;SDS011;40485;53.172;5.416;2022-08-03T14:53:08;15.23;;;2.35;;
54589;SDS011;40485;53.172;5.416;2022-08-03T14:55:33;15.05;;;2.80;;
54589;SDS011;40485;53.172;5.416;2022-08-03T14:57:59;14.25;;;3.03;;
54589;SDS011;40485;53.172;5.416;2022-08-03T15:00:29;19.92;;;2.63;;
54589;SDS011;40485;53.172;5.416;2022-08-03T15:02:55;14.20;;;2.65;;
54589;SDS011;40485;53.172;5.416;2022-08-03T15:05:21;11.93;;;2.70;;
54589;SDS011;40485;53.172;5.416;2022-08-03T15:07:47;16.33;;;2.72;;
54589;SDS011;40485;53.172;5.416;2022-08-03T15:10:12;16.65;;;3.45;;
54589;SDS011;40485;53.172;5.416;2022-08-03T15:12:38;9.52;;;2.42;;
54589;SDS011;40485;53.172;5.416;2022-08-03T15:15:03;12.82;;;2.50;;
54589;SDS011;40485;53.172;5.416;2022-08-03T15:17:29;10.57;;;1.98;;
54589;SDS011;40485;53.172;5.416;2022-08-03T15:19:55;15.57;;;2.80;;